sensor_id;sensor_type;location;lat;lon;timestamp;P1;durP1;ratioP1;P2;durP2;ratioP2
28335;SDS011;15592;53.656;7.276;2022-08-27T00:01:50;8.82;;;2.00;;
28335;SDS011;15592;53.656;7.276;2022-08-27T00:04:15;13.75;;;2.08;;
28335;SDS011;15592;53.656;7.276;2022-08-27T00:06:41;9.38;;;1.92;;
28335;SDS011;15592;53.656;7.276;2022-08-27T00:09:07;7.68;;;2.45;;
28335;SDS011;15592;53.656;7.276;2022-08-27T00:11:33;6.97;;;2.10;;
28335;SDS011;15592;53.656;7.276;2022-08-27T00:13:59;4.15;;;1.60;;
28335;SDS011;15592;53.656;7.276;2022-08-27T00:16:25;8.38;;;1.90;;
28335;SDS011;15592;53.656;7.276;2022-08-27T00:18:52;6.68;;;1.90;;
28335;SDS011;15592;53.656;7.276;2022-08-27T00:21:19;5.47;;;1.73;;
28335;SDS011;15592;53.656;7.276;2022-08-27T00:23:45;4.95;;;1.50;;
28335;SDS011;15592;53.656;7.276;2022-08-27T00:26:11;7.13;;;2.10;;
28335;SDS011;15592;53.656;7.276;2022-08-27T00:28:38;9.48;;;1.92;;
28335;SDS011;15592;53.656;7.276;2022-08-27T00:31:04;6.25;;;1.80;;
28335;SDS011;15592;53.656;7.276;2022-08-27T00:33:30;7.85;;;1.80;;
28335;SDS011;15592;53.656;7.276;2022-08-27T00:35:56;6.43;;;2.15;;
28335;SDS011;15592;53.656;7.276;2022-08-27T00:38:22;4.28;;;1.80;;
28335;SDS011;15592;53.656;7.276;2022-08-27T00:40:48;6.45;;;2.20;;
28335;SDS011;15592;53.656;7.276;2022-08-27T00:43:28;7.70;;;2.08;;
28335;SDS011;15592;53.656;7.276;2022-08-27T00:45:58;5.78;;;1.90;;
28335;SDS011;15592;53.656;7.276;2022-08-27T00:48:32;4.10;;;1.60;;
28335;SDS011;15592;53.656;7.276;2022-08-27T00:51:00;7.32;;;2.13;;
28335;SDS011;15592;53.656;7.276;2022-08-27T00:53:28;7.22;;;2.00;;
28335;SDS011;15592;53.656;7.276;2022-08-27T00:56:11;9.68;;;2.33;;
28335;SDS011;15592;53.656;7.276;2022-08-27T00:58:41;6.38;;;2.30;;
28335;SDS011;15592;53.656;7.276;2022-08-27T01:01:16;10.75;;;2.50;;
28335;SDS011;15592;53.656;7.276;2022-08-27T01:03:45;8.13;;;2.20;;
28335;SDS011;15592;53.656;7.276;2022-08-27T01:06:14;5.80;;;2.00;;
28335;SDS011;15592;53.656;7.276;2022-08-27T01:08:43;7.10;;;1.90;;
28335;SDS011;15592;53.656;7.276;2022-08-27T01:11:12;5.57;;;1.80;;
28335;SDS011;15592;53.656;7.276;2022-08-27T01:13:38;7.18;;;2.25;;
28335;SDS011;15592;53.656;7.276;2022-08-27T01:16:05;7.45;;;2.42;;
28335;SDS011;15592;53.656;7.276;2022-08-27T01:18:32;9.15;;;2.00;;
28335;SDS011;15592;53.656;7.276;2022-08-27T01:21:13;8.25;;;2.63;;
28335;SDS011;15592;53.656;7.276;2022-08-27T01:24:08;4.97;;;2.13;;
28335;SDS011;15592;53.656;7.276;2022-08-27T01:26:58;9.20;;;2.17;;
28335;SDS011;15592;53.656;7.276;2022-08-27T01:29:26;7.05;;;2.10;;
28335;SDS011;15592;53.656;7.276;2022-08-27T01:31:54;5.35;;;1.83;;
28335;SDS011;15592;53.656;7.276;2022-08-27T01:34:29;7.05;;;2.08;;
28335;SDS011;15592;53.656;7.276;2022-08-27T01:36:54;5.15;;;2.00;;
28335;SDS011;15592;53.656;7.276;2022-08-27T01:39:20;7.10;;;2.20;;
28335;SDS011;15592;53.656;7.276;2022-08-27T01:41:46;10.13;;;2.30;;
28335;SDS011;15592;53.656;7.276;2022-08-27T01:44:11;6.55;;;2.10;;
28335;SDS011;15592;53.656;7.276;2022-08-27T01:46:37;10.43;;;2.20;;
28335;SDS011;15592;53.656;7.276;2022-08-27T01:49:02;5.60;;;2.35;;
28335;SDS011;15592;53.656;7.276;2022-08-27T01:51:28;4.45;;;1.85;;
28335;SDS011;15592;53.656;7.276;2022-08-27T01:53:54;4.70;;;2.15;;
28335;SDS011;15592;53.656;7.276;2022-08-27T01:56:19;8.10;;;2.05;;
28335;SDS011;15592;53.656;7.276;2022-08-27T01:58:45;5.03;;;1.85;;
28335;SDS011;15592;53.656;7.276;2022-08-27T02:01:11;7.15;;;2.30;;
28335;SDS011;15592;53.656;7.276;2022-08-27T02:03:40;6.78;;;2.40;;
28335;SDS011;15592;53.656;7.276;2022-08-27T02:06:08;7.18;;;2.28;;
28335;SDS011;15592;53.656;7.276;2022-08-27T02:08:34;8.45;;;2.40;;
28335;SDS011;15592;53.656;7.276;2022-08-27T02:11:01;6.88;;;1.98;;
28335;SDS011;15592;53.656;7.276;2022-08-27T02:13:27;8.65;;;2.30;;
28335;SDS011;15592;53.656;7.276;2022-08-27T02:15:52;6.60;;;2.25;;
28335;SDS011;15592;53.656;7.276;2022-08-27T02:18:18;7.35;;;2.70;;
28335;SDS011;15592;53.656;7.276;2022-08-27T02:20:45;7.22;;;2.40;;
28335;SDS011;15592;53.656;7.276;2022-08-27T02:23:11;5.10;;;2.00;;
28335;SDS011;15592;53.656;7.276;2022-08-27T02:25:38;5.13;;;1.90;;
28335;SDS011;15592;53.656;7.276;2022-08-27T02:28:05;8.05;;;2.22;;
28335;SDS011;15592;53.656;7.276;2022-08-27T02:30:32;4.50;;;1.98;;
28335;SDS011;15592;53.656;7.276;2022-08-27T02:33:02;5.20;;;1.67;;
28335;SDS011;15592;53.656;7.276;2022-08-27T02:35:30;6.40;;;1.88;;
28335;SDS011;15592;53.656;7.276;2022-08-27T02:37:57;4.72;;;1.80;;
28335;SDS011;15592;53.656;7.276;2022-08-27T02:40:23;7.60;;;2.00;;
28335;SDS011;15592;53.656;7.276;2022-08-27T02:42:50;5.65;;;1.95;;
28335;SDS011;15592;53.656;7.276;2022-08-27T02:45:16;9.98;;;2.10;;
28335;SDS011;15592;53.656;7.276;2022-08-27T02:47:43;9.90;;;2.13;;
28335;SDS011;15592;53.656;7.276;2022-08-27T02:50:09;8.10;;;2.20;;
28335;SDS011;15592;53.656;7.276;2022-08-27T02:52:37;5.95;;;2.10;;
28335;SDS011;15592;53.656;7.276;2022-08-27T02:55:03;9.05;;;2.38;;
28335;SDS011;15592;53.656;7.276;2022-08-27T02:57:29;9.90;;;2.40;;
28335;SDS011;15592;53.656;7.276;2022-08-27T02:59:55;7.32;;;2.10;;
28335;SDS011;15592;53.656;7.276;2022-08-27T03:02:21;7.38;;;2.22;;
28335;SDS011;15592;53.656;7.276;2022-08-27T03:04:46;9.50;;;2.53;;
28335;SDS011;15592;53.656;7.276;2022-08-27T03:07:12;12.15;;;2.53;;
28335;SDS011;15592;53.656;7.276;2022-08-27T03:09:38;6.78;;;2.15;;
28335;SDS011;15592;53.656;7.276;2022-08-27T03:12:04;9.90;;;2.50;;
28335;SDS011;15592;53.656;7.276;2022-08-27T03:14:30;9.93;;;2.53;;
28335;SDS011;15592;53.656;7.276;2022-08-27T03:16:56;7.68;;;2.60;;
28335;SDS011;15592;53.656;7.276;2022-08-27T03:19:42;6.70;;;2.20;;
28335;SDS011;15592;53.656;7.276;2022-08-27T03:22:07;8.77;;;2.03;;
28335;SDS011;15592;53.656;7.276;2022-08-27T03:24:34;7.03;;;2.30;;
28335;SDS011;15592;53.656;7.276;2022-08-27T03:27:00;8.70;;;2.13;;
28335;SDS011;15592;53.656;7.276;2022-08-27T03:29:26;8.60;;;2.50;;
28335;SDS011;15592;53.656;7.276;2022-08-27T03:31:52;7.18;;;1.92;;
28335;SDS011;15592;53.656;7.276;2022-08-27T03:34:18;6.82;;;2.00;;
28335;SDS011;15592;53.656;7.276;2022-08-27T03:36:43;7.35;;;2.00;;
28335;SDS011;15592;53.656;7.276;2022-08-27T03:39:09;9.07;;;2.30;;
28335;SDS011;15592;53.656;7.276;2022-08-27T03:41:34;9.43;;;2.17;;
28335;SDS011;15592;53.656;7.276;2022-08-27T03:44:00;7.63;;;2.20;;
28335;SDS011;15592;53.656;7.276;2022-08-27T03:46:26;8.48;;;2.20;;
28335;SDS011;15592;53.656;7.276;2022-08-27T03:48:54;5.20;;;2.08;;
28335;SDS011;15592;53.656;7.276;2022-08-27T03:51:20;9.77;;;2.38;;
28335;SDS011;15592;53.656;7.276;2022-08-27T03:53:46;6.03;;;2.25;;
28335;SDS011;15592;53.656;7.276;2022-08-27T03:56:11;6.68;;;2.35;;
28335;SDS011;15592;53.656;7.276;2022-08-27T03:58:38;5.65;;;2.08;;
28335;SDS011;15592;53.656;7.276;2022-08-27T04:01:04;7.47;;;2.00;;
28335;SDS011;15592;53.656;7.276;2022-08-27T04:03:30;6.65;;;2.30;;
28335;SDS011;15592;53.656;7.276;2022-08-27T04:05:56;7.70;;;2.35;;
28335;SDS011;15592;53.656;7.276;2022-08-27T04:08:23;6.10;;;1.95;;
28335;SDS011;15592;53.656;7.276;2022-08-27T04:10:50;7.38;;;1.88;;
28335;SDS011;15592;53.656;7.276;2022-08-27T04:13:16;10.35;;;2.17;;
28335;SDS011;15592;53.656;7.276;2022-08-27T04:15:42;7.38;;;2.47;;
28335;SDS011;15592;53.656;7.276;2022-08-27T04:18:09;6.28;;;1.83;;
28335;SDS011;15592;53.656;7.276;2022-08-27T04:20:36;7.78;;;2.38;;
28335;SDS011;15592;53.656;7.276;2022-08-27T04:23:03;10.25;;;2.50;;
28335;SDS011;15592;53.656;7.276;2022-08-27T04:25:29;7.78;;;2.13;;
28335;SDS011;15592;53.656;7.276;2022-08-27T04:27:55;8.50;;;2.47;;
28335;SDS011;15592;53.656;7.276;2022-08-27T04:30:21;7.93;;;2.13;;
28335;SDS011;15592;53.656;7.276;2022-08-27T04:32:47;7.72;;;2.10;;
28335;SDS011;15592;53.656;7.276;2022-08-27T04:35:13;6.15;;;1.90;;
28335;SDS011;15592;53.656;7.276;2022-08-27T04:37:38;10.80;;;2.58;;
28335;SDS011;15592;53.656;7.276;2022-08-27T04:40:04;10.60;;;2.90;;
28335;SDS011;15592;53.656;7.276;2022-08-27T04:42:30;9.07;;;2.20;;
28335;SDS011;15592;53.656;7.276;2022-08-27T04:44:56;10.43;;;2.38;;
28335;SDS011;15592;53.656;7.276;2022-08-27T04:47:22;12.52;;;3.45;;
28335;SDS011;15592;53.656;7.276;2022-08-27T04:49:47;7.70;;;2.00;;
28335;SDS011;15592;53.656;7.276;2022-08-27T04:52:13;8.90;;;2.30;;
28335;SDS011;15592;53.656;7.276;2022-08-27T04:54:40;4.32;;;1.60;;
28335;SDS011;15592;53.656;7.276;2022-08-27T04:57:06;9.50;;;2.35;;
28335;SDS011;15592;53.656;7.276;2022-08-27T04:59:32;6.32;;;1.98;;
28335;SDS011;15592;53.656;7.276;2022-08-27T05:01:59;7.47;;;2.20;;
28335;SDS011;15592;53.656;7.276;2022-08-27T05:04:26;7.07;;;1.75;;
28335;SDS011;15592;53.656;7.276;2022-08-27T05:06:53;7.45;;;2.10;;
28335;SDS011;15592;53.656;7.276;2022-08-27T05:09:19;9.98;;;2.65;;
28335;SDS011;15592;53.656;7.276;2022-08-27T05:11:45;7.30;;;2.10;;
28335;SDS011;15592;53.656;7.276;2022-08-27T05:14:12;8.93;;;2.20;;
28335;SDS011;15592;53.656;7.276;2022-08-27T05:16:39;9.00;;;2.58;;
28335;SDS011;15592;53.656;7.276;2022-08-27T05:19:05;10.68;;;2.50;;
28335;SDS011;15592;53.656;7.276;2022-08-27T05:21:43;11.65;;;2.50;;
28335;SDS011;15592;53.656;7.276;2022-08-27T05:24:11;8.55;;;2.10;;
28335;SDS011;15592;53.656;7.276;2022-08-27T05:26:38;11.50;;;2.47;;
28335;SDS011;15592;53.656;7.276;2022-08-27T05:29:04;8.13;;;2.22;;
28335;SDS011;15592;53.656;7.276;2022-08-27T05:31:30;7.38;;;2.17;;
28335;SDS011;15592;53.656;7.276;2022-08-27T05:33:56;7.03;;;1.80;;
28335;SDS011;15592;53.656;7.276;2022-08-27T05:36:26;8.90;;;2.63;;
28335;SDS011;15592;53.656;7.276;2022-08-27T05:38:54;5.72;;;2.22;;
28335;SDS011;15592;53.656;7.276;2022-08-27T05:41:22;11.10;;;2.42;;
28335;SDS011;15592;53.656;7.276;2022-08-27T05:43:51;8.10;;;2.13;;
28335;SDS011;15592;53.656;7.276;2022-08-27T05:46:19;10.68;;;2.67;;
28335;SDS011;15592;53.656;7.276;2022-08-27T05:48:46;7.28;;;2.35;;
28335;SDS011;15592;53.656;7.276;2022-08-27T05:51:23;8.05;;;2.80;;
28335;SDS011;15592;53.656;7.276;2022-08-27T05:53:54;9.18;;;2.20;;
28335;SDS011;15592;53.656;7.276;2022-08-27T05:56:22;11.93;;;2.20;;
28335;SDS011;15592;53.656;7.276;2022-08-27T05:58:49;7.43;;;2.28;;
28335;SDS011;15592;53.656;7.276;2022-08-27T06:01:35;10.05;;;2.53;;
28335;SDS011;15592;53.656;7.276;2022-08-27T06:04:06;9.90;;;2.40;;
28335;SDS011;15592;53.656;7.276;2022-08-27T06:06:33;12.25;;;2.30;;
28335;SDS011;15592;53.656;7.276;2022-08-27T06:09:00;17.80;;;2.70;;
28335;SDS011;15592;53.656;7.276;2022-08-27T06:11:26;13.80;;;2.55;;
28335;SDS011;15592;53.656;7.276;2022-08-27T06:13:52;7.47;;;1.95;;
28335;SDS011;15592;53.656;7.276;2022-08-27T06:16:20;12.68;;;2.45;;
28335;SDS011;15592;53.656;7.276;2022-08-27T06:18:46;11.07;;;2.63;;
28335;SDS011;15592;53.656;7.276;2022-08-27T06:21:13;6.45;;;1.77;;
28335;SDS011;15592;53.656;7.276;2022-08-27T06:23:40;9.52;;;2.15;;
28335;SDS011;15592;53.656;7.276;2022-08-27T06:26:06;13.82;;;2.70;;
28335;SDS011;15592;53.656;7.276;2022-08-27T06:28:35;12.37;;;2.33;;
28335;SDS011;15592;53.656;7.276;2022-08-27T06:31:02;11.38;;;2.45;;
28335;SDS011;15592;53.656;7.276;2022-08-27T06:33:43;13.68;;;2.42;;
28335;SDS011;15592;53.656;7.276;2022-08-27T06:36:11;14.38;;;2.65;;
28335;SDS011;15592;53.656;7.276;2022-08-27T06:38:39;9.95;;;2.72;;
28335;SDS011;15592;53.656;7.276;2022-08-27T06:41:07;9.02;;;2.13;;
28335;SDS011;15592;53.656;7.276;2022-08-27T06:43:36;10.68;;;2.47;;
28335;SDS011;15592;53.656;7.276;2022-08-27T06:46:04;9.80;;;2.30;;
28335;SDS011;15592;53.656;7.276;2022-08-27T06:48:31;6.75;;;1.98;;
28335;SDS011;15592;53.656;7.276;2022-08-27T06:50:57;7.53;;;2.15;;
28335;SDS011;15592;53.656;7.276;2022-08-27T06:53:23;11.77;;;2.75;;
28335;SDS011;15592;53.656;7.276;2022-08-27T06:55:49;9.55;;;2.38;;
28335;SDS011;15592;53.656;7.276;2022-08-27T06:58:16;14.80;;;2.40;;
28335;SDS011;15592;53.656;7.276;2022-08-27T07:00:42;12.05;;;2.38;;
28335;SDS011;15592;53.656;7.276;2022-08-27T07:03:08;18.42;;;2.42;;
28335;SDS011;15592;53.656;7.276;2022-08-27T07:05:35;7.13;;;1.63;;
28335;SDS011;15592;53.656;7.276;2022-08-27T07:08:02;10.13;;;2.38;;
28335;SDS011;15592;53.656;7.276;2022-08-27T07:10:29;12.73;;;1.88;;
28335;SDS011;15592;53.656;7.276;2022-08-27T07:12:56;8.30;;;2.35;;
28335;SDS011;15592;53.656;7.276;2022-08-27T07:15:23;8.57;;;2.20;;
28335;SDS011;15592;53.656;7.276;2022-08-27T07:17:49;11.68;;;2.60;;
28335;SDS011;15592;53.656;7.276;2022-08-27T07:20:15;8.68;;;1.83;;
28335;SDS011;15592;53.656;7.276;2022-08-27T07:22:43;11.85;;;2.42;;
28335;SDS011;15592;53.656;7.276;2022-08-27T07:25:10;12.18;;;2.53;;
28335;SDS011;15592;53.656;7.276;2022-08-27T07:27:40;12.68;;;2.60;;
28335;SDS011;15592;53.656;7.276;2022-08-27T07:30:07;7.65;;;2.13;;
28335;SDS011;15592;53.656;7.276;2022-08-27T07:32:35;10.30;;;2.47;;
28335;SDS011;15592;53.656;7.276;2022-08-27T07:35:01;9.15;;;2.33;;
28335;SDS011;15592;53.656;7.276;2022-08-27T07:37:27;9.90;;;2.30;;
28335;SDS011;15592;53.656;7.276;2022-08-27T07:39:53;9.70;;;1.77;;
28335;SDS011;15592;53.656;7.276;2022-08-27T07:42:18;8.35;;;2.00;;
28335;SDS011;15592;53.656;7.276;2022-08-27T07:45:02;8.02;;;1.98;;
28335;SDS011;15592;53.656;7.276;2022-08-27T07:47:29;7.75;;;1.65;;
28335;SDS011;15592;53.656;7.276;2022-08-27T07:49:56;9.13;;;2.22;;
28335;SDS011;15592;53.656;7.276;2022-08-27T07:52:22;6.43;;;1.77;;
28335;SDS011;15592;53.656;7.276;2022-08-27T07:54:48;9.48;;;2.13;;
28335;SDS011;15592;53.656;7.276;2022-08-27T07:57:15;7.43;;;1.83;;
28335;SDS011;15592;53.656;7.276;2022-08-27T07:59:40;5.70;;;1.92;;
28335;SDS011;15592;53.656;7.276;2022-08-27T08:02:06;10.55;;;2.13;;
28335;SDS011;15592;53.656;7.276;2022-08-27T08:04:32;15.07;;;3.35;;
28335;SDS011;15592;53.656;7.276;2022-08-27T08:06:57;8.93;;;1.92;;
28335;SDS011;15592;53.656;7.276;2022-08-27T08:09:23;10.60;;;2.13;;
28335;SDS011;15592;53.656;7.276;2022-08-27T08:11:50;6.97;;;1.95;;
28335;SDS011;15592;53.656;7.276;2022-08-27T08:14:16;10.38;;;2.22;;
28335;SDS011;15592;53.656;7.276;2022-08-27T08:16:43;14.27;;;2.10;;
28335;SDS011;15592;53.656;7.276;2022-08-27T08:19:09;9.07;;;2.10;;
28335;SDS011;15592;53.656;7.276;2022-08-27T08:21:35;9.70;;;2.10;;
28335;SDS011;15592;53.656;7.276;2022-08-27T08:24:02;9.30;;;2.03;;
28335;SDS011;15592;53.656;7.276;2022-08-27T08:26:28;11.25;;;2.25;;
28335;SDS011;15592;53.656;7.276;2022-08-27T08:28:54;6.85;;;1.77;;
28335;SDS011;15592;53.656;7.276;2022-08-27T08:31:20;8.10;;;2.00;;
28335;SDS011;15592;53.656;7.276;2022-08-27T08:33:47;8.48;;;2.22;;
28335;SDS011;15592;53.656;7.276;2022-08-27T08:36:14;10.77;;;2.20;;
28335;SDS011;15592;53.656;7.276;2022-08-27T08:38:40;7.70;;;1.73;;
28335;SDS011;15592;53.656;7.276;2022-08-27T08:43:56;8.50;;;2.00;;
28335;SDS011;15592;53.656;7.276;2022-08-27T08:46:40;8.30;;;1.95;;
28335;SDS011;15592;53.656;7.276;2022-08-27T08:49:38;9.73;;;2.00;;
28335;SDS011;15592;53.656;7.276;2022-08-27T08:52:14;8.00;;;1.65;;
28335;SDS011;15592;53.656;7.276;2022-08-27T08:54:51;7.65;;;2.17;;
28335;SDS011;15592;53.656;7.276;2022-08-27T08:57:29;9.93;;;1.73;;
28335;SDS011;15592;53.656;7.276;2022-08-27T09:00:08;8.57;;;1.67;;
28335;SDS011;15592;53.656;7.276;2022-08-27T09:02:39;12.68;;;2.05;;
28335;SDS011;15592;53.656;7.276;2022-08-27T09:05:09;10.38;;;1.77;;
28335;SDS011;15592;53.656;7.276;2022-08-27T09:10:41;10.88;;;2.60;;
28335;SDS011;15592;53.656;7.276;2022-08-27T09:13:13;8.85;;;1.98;;
28335;SDS011;15592;53.656;7.276;2022-08-27T09:16:00;12.27;;;1.98;;
28335;SDS011;15592;53.656;7.276;2022-08-27T09:18:27;12.13;;;2.17;;
28335;SDS011;15592;53.656;7.276;2022-08-27T09:20:59;5.72;;;1.60;;
28335;SDS011;15592;53.656;7.276;2022-08-27T09:23:35;6.45;;;2.08;;
28335;SDS011;15592;53.656;7.276;2022-08-27T09:26:03;12.93;;;2.33;;
28335;SDS011;15592;53.656;7.276;2022-08-27T09:28:29;11.75;;;2.10;;
28335;SDS011;15592;53.656;7.276;2022-08-27T09:31:14;10.73;;;2.00;;
28335;SDS011;15592;53.656;7.276;2022-08-27T09:33:43;7.82;;;2.00;;
28335;SDS011;15592;53.656;7.276;2022-08-27T09:36:11;9.57;;;2.08;;
28335;SDS011;15592;53.656;7.276;2022-08-27T09:38:41;8.85;;;1.98;;
28335;SDS011;15592;53.656;7.276;2022-08-27T09:41:19;8.77;;;2.35;;
28335;SDS011;15592;53.656;7.276;2022-08-27T09:43:56;8.95;;;2.10;;
28335;SDS011;15592;53.656;7.276;2022-08-27T09:46:23;12.15;;;2.45;;
28335;SDS011;15592;53.656;7.276;2022-08-27T09:48:50;11.02;;;2.25;;
28335;SDS011;15592;53.656;7.276;2022-08-27T09:51:17;9.15;;;1.70;;
28335;SDS011;15592;53.656;7.276;2022-08-27T09:56:39;11.25;;;2.08;;
28335;SDS011;15592;53.656;7.276;2022-08-27T09:59:21;11.60;;;1.75;;
28335;SDS011;15592;53.656;7.276;2022-08-27T10:01:49;7.47;;;1.75;;
28335;SDS011;15592;53.656;7.276;2022-08-27T10:04:37;6.85;;;1.90;;
28335;SDS011;15592;53.656;7.276;2022-08-27T10:07:14;6.65;;;1.95;;
28335;SDS011;15592;53.656;7.276;2022-08-27T10:10:12;7.18;;;1.70;;
28335;SDS011;15592;53.656;7.276;2022-08-27T10:12:52;11.55;;;1.88;;
28335;SDS011;15592;53.656;7.276;2022-08-27T10:15:23;10.00;;;1.77;;
28335;SDS011;15592;53.656;7.276;2022-08-27T10:24:07;8.35;;;1.90;;
28335;SDS011;15592;53.656;7.276;2022-08-27T10:26:40;8.15;;;1.80;;
28335;SDS011;15592;53.656;7.276;2022-08-27T10:42:25;9.98;;;2.10;;
28335;SDS011;15592;53.656;7.276;2022-08-27T10:44:59;9.07;;;1.90;;
28335;SDS011;15592;53.656;7.276;2022-08-27T10:47:42;8.48;;;1.70;;
28335;SDS011;15592;53.656;7.276;2022-08-27T10:53:29;7.72;;;1.65;;
28335;SDS011;15592;53.656;7.276;2022-08-27T10:56:38;6.70;;;1.50;;
28335;SDS011;15592;53.656;7.276;2022-08-27T11:01:47;7.13;;;1.25;;
28335;SDS011;15592;53.656;7.276;2022-08-27T11:04:38;5.00;;;1.20;;
28335;SDS011;15592;53.656;7.276;2022-08-27T11:07:31;6.13;;;1.52;;
28335;SDS011;15592;53.656;7.276;2022-08-27T11:10:18;7.60;;;1.70;;
28335;SDS011;15592;53.656;7.276;2022-08-27T11:12:57;5.15;;;1.38;;
28335;SDS011;15592;53.656;7.276;2022-08-27T11:15:35;7.13;;;1.60;;
28335;SDS011;15592;53.656;7.276;2022-08-27T11:20:54;8.15;;;1.45;;
28335;SDS011;15592;53.656;7.276;2022-08-27T11:26:01;7.57;;;1.80;;
28335;SDS011;15592;53.656;7.276;2022-08-27T11:44:38;4.63;;;1.45;;
28335;SDS011;15592;53.656;7.276;2022-08-27T11:47:13;6.35;;;1.38;;
28335;SDS011;15592;53.656;7.276;2022-08-27T11:49:50;6.13;;;1.40;;
28335;SDS011;15592;53.656;7.276;2022-08-27T11:52:39;6.43;;;1.45;;
28335;SDS011;15592;53.656;7.276;2022-08-27T11:58:01;5.55;;;1.80;;
28335;SDS011;15592;53.656;7.276;2022-08-27T12:00:33;5.53;;;1.80;;
28335;SDS011;15592;53.656;7.276;2022-08-27T12:03:05;8.50;;;1.85;;
28335;SDS011;15592;53.656;7.276;2022-08-27T12:05:34;6.70;;;1.63;;
28335;SDS011;15592;53.656;7.276;2022-08-27T12:16:24;4.88;;;1.63;;
28335;SDS011;15592;53.656;7.276;2022-08-27T12:19:26;10.05;;;2.17;;
28335;SDS011;15592;53.656;7.276;2022-08-27T12:25:54;9.88;;;1.80;;
28335;SDS011;15592;53.656;7.276;2022-08-27T12:28:25;8.60;;;1.90;;
28335;SDS011;15592;53.656;7.276;2022-08-27T12:30:51;8.52;;;1.73;;
28335;SDS011;15592;53.656;7.276;2022-08-27T12:33:32;6.25;;;1.58;;
28335;SDS011;15592;53.656;7.276;2022-08-27T12:36:19;5.03;;;1.80;;
28335;SDS011;15592;53.656;7.276;2022-08-27T12:38:50;6.68;;;1.52;;
28335;SDS011;15592;53.656;7.276;2022-08-27T12:41:29;6.95;;;1.80;;
28335;SDS011;15592;53.656;7.276;2022-08-27T12:44:09;12.15;;;2.25;;
28335;SDS011;15592;53.656;7.276;2022-08-27T12:46:48;7.75;;;1.98;;
28335;SDS011;15592;53.656;7.276;2022-08-27T12:49:24;9.88;;;2.33;;
28335;SDS011;15592;53.656;7.276;2022-08-27T12:51:52;5.20;;;1.42;;
28335;SDS011;15592;53.656;7.276;2022-08-27T13:04:37;4.97;;;1.70;;
28335;SDS011;15592;53.656;7.276;2022-08-27T13:07:05;6.70;;;1.80;;
28335;SDS011;15592;53.656;7.276;2022-08-27T13:09:32;9.45;;;2.00;;
28335;SDS011;15592;53.656;7.276;2022-08-27T13:11:59;7.45;;;1.85;;
28335;SDS011;15592;53.656;7.276;2022-08-27T13:14:27;7.70;;;1.80;;
28335;SDS011;15592;53.656;7.276;2022-08-27T13:17:03;10.93;;;1.75;;
28335;SDS011;15592;53.656;7.276;2022-08-27T13:19:48;5.65;;;1.52;;
28335;SDS011;15592;53.656;7.276;2022-08-27T13:24:59;5.38;;;1.80;;
28335;SDS011;15592;53.656;7.276;2022-08-27T13:27:26;6.03;;;1.60;;
28335;SDS011;15592;53.656;7.276;2022-08-27T13:29:54;6.72;;;1.58;;
28335;SDS011;15592;53.656;7.276;2022-08-27T13:32:22;7.35;;;2.13;;
28335;SDS011;15592;53.656;7.276;2022-08-27T13:34:49;8.65;;;2.10;;
28335;SDS011;15592;53.656;7.276;2022-08-27T13:37:23;4.70;;;1.70;;
28335;SDS011;15592;53.656;7.276;2022-08-27T13:39:52;5.97;;;1.42;;
28335;SDS011;15592;53.656;7.276;2022-08-27T13:42:19;7.18;;;1.65;;
28335;SDS011;15592;53.656;7.276;2022-08-27T13:44:46;6.60;;;2.10;;
28335;SDS011;15592;53.656;7.276;2022-08-27T13:47:16;6.05;;;1.58;;
28335;SDS011;15592;53.656;7.276;2022-08-27T13:49:46;4.10;;;1.77;;
28335;SDS011;15592;53.656;7.276;2022-08-27T13:52:28;6.55;;;1.85;;
28335;SDS011;15592;53.656;7.276;2022-08-27T13:55:00;13.25;;;2.53;;
28335;SDS011;15592;53.656;7.276;2022-08-27T13:57:37;9.25;;;2.50;;
28335;SDS011;15592;53.656;7.276;2022-08-27T14:00:12;10.05;;;3.15;;
28335;SDS011;15592;53.656;7.276;2022-08-27T14:02:41;12.02;;;2.55;;
28335;SDS011;15592;53.656;7.276;2022-08-27T14:05:09;11.43;;;3.22;;
28335;SDS011;15592;53.656;7.276;2022-08-27T14:07:51;12.77;;;3.25;;
28335;SDS011;15592;53.656;7.276;2022-08-27T14:10:36;12.25;;;3.20;;
28335;SDS011;15592;53.656;7.276;2022-08-27T14:13:07;14.38;;;3.40;;
28335;SDS011;15592;53.656;7.276;2022-08-27T14:15:44;10.27;;;3.20;;
28335;SDS011;15592;53.656;7.276;2022-08-27T14:18:29;11.20;;;3.83;;
28335;SDS011;15592;53.656;7.276;2022-08-27T14:20:56;10.68;;;3.65;;
28335;SDS011;15592;53.656;7.276;2022-08-27T14:23:22;12.15;;;3.67;;
28335;SDS011;15592;53.656;7.276;2022-08-27T14:25:48;11.98;;;4.38;;
28335;SDS011;15592;53.656;7.276;2022-08-27T14:28:15;10.40;;;3.50;;
28335;SDS011;15592;53.656;7.276;2022-08-27T14:30:41;11.85;;;4.32;;
28335;SDS011;15592;53.656;7.276;2022-08-27T14:33:07;9.50;;;3.55;;
28335;SDS011;15592;53.656;7.276;2022-08-27T14:35:34;9.00;;;3.97;;
28335;SDS011;15592;53.656;7.276;2022-08-27T14:38:03;11.85;;;4.15;;
28335;SDS011;15592;53.656;7.276;2022-08-27T14:40:38;12.60;;;4.28;;
28335;SDS011;15592;53.656;7.276;2022-08-27T14:43:05;13.68;;;4.22;;
28335;SDS011;15592;53.656;7.276;2022-08-27T14:45:31;10.52;;;3.75;;
28335;SDS011;15592;53.656;7.276;2022-08-27T14:47:57;14.82;;;4.35;;
28335;SDS011;15592;53.656;7.276;2022-08-27T14:50:23;13.85;;;4.05;;
28335;SDS011;15592;53.656;7.276;2022-08-27T14:52:49;11.43;;;3.88;;
28335;SDS011;15592;53.656;7.276;2022-08-27T14:55:15;12.48;;;4.53;;
28335;SDS011;15592;53.656;7.276;2022-08-27T14:57:41;15.95;;;4.30;;
28335;SDS011;15592;53.656;7.276;2022-08-27T15:00:07;13.18;;;3.92;;
28335;SDS011;15592;53.656;7.276;2022-08-27T15:02:34;13.25;;;4.35;;
28335;SDS011;15592;53.656;7.276;2022-08-27T15:05:00;10.32;;;4.65;;
28335;SDS011;15592;53.656;7.276;2022-08-27T15:07:25;11.45;;;4.28;;
28335;SDS011;15592;53.656;7.276;2022-08-27T15:09:51;14.55;;;4.70;;
28335;SDS011;15592;53.656;7.276;2022-08-27T15:12:19;12.05;;;4.32;;
28335;SDS011;15592;53.656;7.276;2022-08-27T15:14:44;11.85;;;3.97;;
28335;SDS011;15592;53.656;7.276;2022-08-27T15:17:10;13.88;;;4.20;;
28335;SDS011;15592;53.656;7.276;2022-08-27T15:19:36;13.45;;;4.57;;
28335;SDS011;15592;53.656;7.276;2022-08-27T15:22:23;9.98;;;4.57;;
28335;SDS011;15592;53.656;7.276;2022-08-27T15:24:52;10.43;;;4.10;;
28335;SDS011;15592;53.656;7.276;2022-08-27T15:27:19;14.77;;;4.38;;
28335;SDS011;15592;53.656;7.276;2022-08-27T15:29:46;13.57;;;3.83;;
28335;SDS011;15592;53.656;7.276;2022-08-27T15:32:16;13.38;;;3.75;;
28335;SDS011;15592;53.656;7.276;2022-08-27T15:34:53;13.80;;;3.92;;
28335;SDS011;15592;53.656;7.276;2022-08-27T15:37:20;15.40;;;4.53;;
28335;SDS011;15592;53.656;7.276;2022-08-27T15:39:46;12.38;;;4.72;;
28335;SDS011;15592;53.656;7.276;2022-08-27T15:42:12;13.45;;;4.93;;
28335;SDS011;15592;53.656;7.276;2022-08-27T15:44:40;10.82;;;4.32;;
28335;SDS011;15592;53.656;7.276;2022-08-27T15:47:09;13.98;;;5.13;;
28335;SDS011;15592;53.656;7.276;2022-08-27T15:49:35;15.43;;;5.47;;
28335;SDS011;15592;53.656;7.276;2022-08-27T15:52:01;14.65;;;4.75;;
28335;SDS011;15592;53.656;7.276;2022-08-27T15:54:28;14.13;;;4.93;;
28335;SDS011;15592;53.656;7.276;2022-08-27T15:56:54;15.98;;;5.15;;
28335;SDS011;15592;53.656;7.276;2022-08-27T15:59:19;15.00;;;5.70;;
28335;SDS011;15592;53.656;7.276;2022-08-27T16:01:45;12.88;;;4.72;;
28335;SDS011;15592;53.656;7.276;2022-08-27T16:04:11;16.15;;;5.15;;
28335;SDS011;15592;53.656;7.276;2022-08-27T16:06:38;14.85;;;5.25;;
28335;SDS011;15592;53.656;7.276;2022-08-27T16:09:04;13.70;;;5.15;;
28335;SDS011;15592;53.656;7.276;2022-08-27T16:11:30;16.63;;;5.80;;
28335;SDS011;15592;53.656;7.276;2022-08-27T16:13:56;14.95;;;5.20;;
28335;SDS011;15592;53.656;7.276;2022-08-27T16:16:24;17.35;;;5.47;;
28335;SDS011;15592;53.656;7.276;2022-08-27T16:18:52;14.60;;;4.95;;
28335;SDS011;15592;53.656;7.276;2022-08-27T16:21:18;16.98;;;5.25;;